createdAt,value
2023-03-11T00:00:55.960Z,1.94
2023-03-11T00:06:04.397Z,2.00
2023-03-11T00:11:08.644Z,2.20
2023-03-11T00:16:12.385Z,2.30
2023-03-11T00:21:19.301Z,2.20
2023-03-11T00:26:23.164Z,2.02
2023-03-11T00:31:27.373Z,1.90
2023-03-11T00:36:34.393Z,1.90
2023-03-11T00:41:38.415Z,2.00
2023-03-11T00:46:41.952Z,2.20
2023-03-11T00:51:45.634Z,2.30
2023-03-11T00:56:49.469Z,2.38
2023-03-11T01:01:53.305Z,2.28
2023-03-11T01:06:57.341Z,2.12
2023-03-11T01:12:01.255Z,2.02
2023-03-11T01:17:05.286Z,2.10
2023-03-11T01:22:10.551Z,2.30
2023-03-11T01:27:14.375Z,2.40
2023-03-11T01:32:18.099Z,2.40
2023-03-11T01:37:22.222Z,2.30
2023-03-11T01:42:26.048Z,2.22
2023-03-11T01:47:40.208Z,2.20
2023-03-11T01:52:45.270Z,2.30
2023-03-11T01:57:51.268Z,2.40
2023-03-11T02:03:00.177Z,2.40
2023-03-11T02:08:04.231Z,2.30
2023-03-11T02:13:08.259Z,2.30
2023-03-11T02:18:20.475Z,2.40
2023-03-11T02:23:34.645Z,2.50
2023-03-11T02:28:41.349Z,2.30
2023-03-11T02:33:49.600Z,2.20
2023-03-11T02:38:53.203Z,2.08
2023-03-11T02:43:59.245Z,2.10
2023-03-11T02:49:04.455Z,2.30
2023-03-11T02:54:08.269Z,2.40
2023-03-11T02:59:12.206Z,2.34
2023-03-11T03:04:16.153Z,2.20
2023-03-11T03:09:20.143Z,2.12
2023-03-11T03:14:23.996Z,2.30
2023-03-11T03:19:27.802Z,2.40
2023-03-11T03:24:31.975Z,2.20
2023-03-11T03:29:35.750Z,2.04
2023-03-11T03:34:39.506Z,2.00
2023-03-11T03:39:44.202Z,2.00
2023-03-11T03:44:48.963Z,2.00
2023-03-11T03:49:53.010Z,2.00
2023-03-11T03:54:56.742Z,2.00
2023-03-11T04:00:00.453Z,2.00
2023-03-11T04:05:05.503Z,2.00
2023-03-11T04:10:10.052Z,2.04
2023-03-11T04:15:13.867Z,2.02
2023-03-11T04:20:18.477Z,2.00
2023-03-11T04:25:22.135Z,2.10
2023-03-11T04:30:25.870Z,2.18
2023-03-11T04:35:29.703Z,2.00
2023-03-11T04:40:33.810Z,1.90
2023-03-11T04:45:42.623Z,1.80
2023-03-11T04:50:46.530Z,1.90
2023-03-11T04:55:51.025Z,2.00
2023-03-11T05:00:54.749Z,2.00
2023-03-11T05:06:00.599Z,2.10
2023-03-11T05:11:04.951Z,2.00
2023-03-11T05:16:09.014Z,1.84
2023-03-11T05:21:15.751Z,1.90
2023-03-11T05:26:21.063Z,2.00
2023-03-11T05:31:26.087Z,2.16
2023-03-11T05:36:30.432Z,2.10
2023-03-11T05:41:35.413Z,1.90
2023-03-11T05:46:39.689Z,1.98
2023-03-11T05:51:46.033Z,2.08
2023-03-11T05:56:51.180Z,2.00
2023-03-11T06:01:55.307Z,2.00
2023-03-11T06:06:59.025Z,2.10
2023-03-11T06:12:05.174Z,1.90
2023-03-11T06:17:09.352Z,1.98
2023-03-11T06:22:13.242Z,1.90
2023-03-11T06:27:16.893Z,1.70
2023-03-11T06:32:20.718Z,1.70
2023-03-11T06:37:26.617Z,1.60
2023-03-11T06:42:30.615Z,1.60
2023-03-11T06:47:34.454Z,1.60
2023-03-11T06:52:38.980Z,1.60
2023-03-11T06:57:42.709Z,1.78
2023-03-11T07:02:46.540Z,1.80
2023-03-11T07:07:55.981Z,1.84
2023-03-11T07:12:59.414Z,1.90
2023-03-11T07:18:03.341Z,1.90
2023-03-11T07:23:07.066Z,2.00
2023-03-11T07:28:10.918Z,2.00
2023-03-11T07:33:15.869Z,2.00
2023-03-11T07:38:21.041Z,2.20
2023-03-11T07:43:24.934Z,2.20
2023-03-11T07:48:29.081Z,2.20
2023-03-11T07:53:34.677Z,2.30
2023-03-11T07:58:39.679Z,2.48
2023-03-11T08:03:52.817Z,2.86
2023-03-11T08:08:57.182Z,3.00
2023-03-11T08:14:02.322Z,3.20
2023-03-11T08:19:06.276Z,3.20
2023-03-11T08:24:14.703Z,3.08
2023-03-11T08:29:18.356Z,2.90
2023-03-11T08:34:22.969Z,2.90
2023-03-11T08:39:27.210Z,3.00
2023-03-11T08:44:32.234Z,2.90
2023-03-11T08:49:38.856Z,2.70
2023-03-11T08:54:43.124Z,2.72
2023-03-11T08:59:47.296Z,2.70
2023-03-11T09:04:51.379Z,2.52
2023-03-11T09:09:55.150Z,2.56
2023-03-11T09:14:59.590Z,2.40
2023-03-11T09:20:04.557Z,2.40
2023-03-11T09:25:12.474Z,2.22
2023-03-11T09:30:17.010Z,2.30
2023-03-11T09:35:21.061Z,2.28
2023-03-11T09:40:28.788Z,2.20
2023-03-11T09:45:47.145Z,2.20
2023-03-11T09:51:03.621Z,2.20
2023-03-11T09:56:12.684Z,2.30
2023-03-11T10:01:31.773Z,2.26
2023-03-11T10:06:37.372Z,2.30
2023-03-11T10:12:42.111Z,2.20
2023-03-11T10:18:16.904Z,2.30
2023-03-11T10:23:55.446Z,2.20
2023-03-11T10:29:31.660Z,2.30
2023-03-11T10:35:23.379Z,2.40
2023-03-11T10:40:35.733Z,2.50
2023-03-11T10:45:45.484Z,2.40
2023-03-11T10:51:35.446Z,2.40
2023-03-11T10:56:41.839Z,2.32
2023-03-11T11:02:00.270Z,2.40
2023-03-11T11:07:30.085Z,2.36
2023-03-11T11:12:33.867Z,2.30
2023-03-11T11:17:38.194Z,2.30
2023-03-11T11:22:58.239Z,2.30
2023-03-11T11:28:19.743Z,2.30
2023-03-11T11:33:40.801Z,2.20
2023-03-11T11:38:45.302Z,2.30
2023-03-11T11:44:00.336Z,2.20
2023-03-11T11:49:26.034Z,2.30
2023-03-11T11:55:27.371Z,2.50
2023-03-11T12:00:40.656Z,2.60
2023-03-11T12:06:00.581Z,2.50
2023-03-11T12:11:15.555Z,2.30
2023-03-11T12:16:41.072Z,2.16
2023-03-11T12:22:13.488Z,2.18
2023-03-11T12:27:28.452Z,2.20
2023-03-11T12:32:54.782Z,2.20
2023-03-11T12:38:13.796Z,2.20
2023-03-11T12:43:35.430Z,2.20
2023-03-11T12:48:50.677Z,2.50
2023-03-11T12:53:55.999Z,2.70
2023-03-11T12:59:36.486Z,2.80
2023-03-11T13:05:12.187Z,2.82
2023-03-11T13:10:38.908Z,2.72
2023-03-11T13:15:43.459Z,3.08
2023-03-11T13:21:10.629Z,3.30
2023-03-11T13:26:31.749Z,3.38
2023-03-11T13:32:03.351Z,3.44
2023-03-11T13:37:34.825Z,3.40
2023-03-11T13:42:47.013Z,3.30
2023-03-11T13:47:54.043Z,3.30
2023-03-11T13:53:01.449Z,3.40
2023-03-11T13:58:17.029Z,3.96
2023-03-11T14:03:24.238Z,4.90
2023-03-11T14:08:36.215Z,4.84
2023-03-11T14:13:46.551Z,4.40
2023-03-11T14:19:18.060Z,3.70
2023-03-11T14:24:30.973Z,3.10
2023-03-11T14:29:44.115Z,2.80
2023-03-11T14:34:48.548Z,2.70
2023-03-11T14:39:54.050Z,2.50
2023-03-11T14:45:16.533Z,2.50
2023-03-11T14:50:28.704Z,2.60
2023-03-11T14:55:44.708Z,2.60
2023-03-11T15:01:04.651Z,2.42
2023-03-11T15:06:17.988Z,2.50
2023-03-11T15:11:28.828Z,2.40
2023-03-11T15:16:38.364Z,2.20
2023-03-11T15:21:48.586Z,2.10
2023-03-11T15:27:07.780Z,1.90
2023-03-11T15:32:30.265Z,1.80
2023-03-11T15:37:35.501Z,1.86
2023-03-11T15:42:39.457Z,1.80
2023-03-11T15:47:44.785Z,2.30
2023-03-11T15:52:48.917Z,2.16
2023-03-11T15:58:08.548Z,1.90
2023-03-11T16:03:12.158Z,1.90
2023-03-11T16:08:17.581Z,1.70
2023-03-11T16:13:21.317Z,1.70
2023-03-11T16:18:25.244Z,1.70
2023-03-11T16:23:50.549Z,1.50
2023-03-11T16:28:55.435Z,1.40
2023-03-11T16:33:59.252Z,1.30
2023-03-11T16:39:04.108Z,1.10
2023-03-11T16:44:09.727Z,1.00
2023-03-11T16:49:14.014Z,1.00
2023-03-11T16:54:18.352Z,0.90
2023-03-11T16:59:22.577Z,0.90
2023-03-11T17:04:26.620Z,0.76
2023-03-11T17:09:30.953Z,0.70
2023-03-11T17:14:36.397Z,0.80
2023-03-11T17:19:40.664Z,0.70
2023-03-11T17:24:44.670Z,0.60
2023-03-11T17:29:48.423Z,0.78
2023-03-11T17:34:52.970Z,0.70
2023-03-11T17:39:56.983Z,0.60
2023-03-11T17:45:00.726Z,0.50
2023-03-11T17:50:06.048Z,0.60
2023-03-11T17:55:10.820Z,0.50
2023-03-11T18:00:15.868Z,0.30
2023-03-11T18:05:21.498Z,0.30
2023-03-11T18:10:25.355Z,0.20
2023-03-11T18:15:29.529Z,0.00
2023-03-11T18:20:34.031Z,0.10
2023-03-11T18:25:38.227Z,0.10
2023-03-11T18:30:43.027Z,0.00
2023-03-11T18:35:47.490Z,0.00
2023-03-11T18:40:58.376Z,0.20
2023-03-11T18:46:09.232Z,0.20
2023-03-11T18:51:16.017Z,0.10
2023-03-11T18:56:20.469Z,0.00
2023-03-11T19:01:24.689Z,0.10
2023-03-11T19:06:30.796Z,0.20
2023-03-11T19:11:35.893Z,0.10
2023-03-11T19:16:41.224Z,-0.10
2023-03-11T19:21:48.431Z,-0.20
2023-03-11T19:26:52.756Z,-0.10
2023-03-11T19:31:57.202Z,-0.10
2023-03-11T19:37:01.573Z,-0.30
2023-03-11T19:42:05.660Z,-0.50
2023-03-11T19:47:10.226Z,-0.40
2023-03-11T19:52:14.582Z,-0.40
2023-03-11T19:57:18.487Z,-0.50
2023-03-11T20:02:22.834Z,-0.68
2023-03-11T20:07:26.968Z,-0.52
2023-03-11T20:12:32.272Z,-0.38
2023-03-11T20:17:36.013Z,-0.40
2023-03-11T20:22:40.065Z,-0.50
2023-03-11T20:27:43.988Z,-0.60
2023-03-11T20:32:49.117Z,-0.50
2023-03-11T20:37:52.966Z,-0.48
2023-03-11T20:42:57.928Z,-0.60
2023-03-11T20:48:01.737Z,-0.80
2023-03-11T20:53:06.864Z,-0.80
2023-03-11T20:58:11.493Z,-0.70
2023-03-11T21:03:15.773Z,-0.80
2023-03-11T21:08:20.142Z,-1.00
2023-03-11T21:13:24.112Z,-0.90
2023-03-11T21:18:28.369Z,-1.00
2023-03-11T21:23:32.927Z,-1.10
2023-03-11T21:28:40.347Z,-1.10
2023-03-11T21:33:45.337Z,-1.00
2023-03-11T21:38:50.628Z,-1.10
2023-03-11T21:43:57.173Z,-1.20
2023-03-11T21:49:02.155Z,-1.08
2023-03-11T21:54:06.470Z,-1.10
2023-03-11T21:59:10.419Z,-1.30
2023-03-11T22:04:14.474Z,-1.20
2023-03-11T22:09:18.643Z,-1.20
2023-03-11T22:14:23.097Z,-1.30
2023-03-11T22:19:26.898Z,-1.30
2023-03-11T22:24:30.639Z,-1.30
2023-03-11T22:29:34.544Z,-1.58
2023-03-11T22:34:38.295Z,-1.60
2023-03-11T22:39:42.304Z,-1.60
2023-03-11T22:44:46.255Z,-1.80
2023-03-11T22:49:50.382Z,-1.80
2023-03-11T22:54:54.540Z,-1.80
2023-03-11T22:59:58.441Z,-2.00
2023-03-11T23:05:02.155Z,-2.00
2023-03-11T23:10:09.300Z,-1.90
2023-03-11T23:15:18.096Z,-1.90
2023-03-11T23:20:22.266Z,-1.80
2023-03-11T23:25:26.356Z,-1.70
2023-03-11T23:30:30.501Z,-1.70
2023-03-11T23:35:34.503Z,-1.50
2023-03-11T23:40:41.914Z,-1.42
2023-03-11T23:45:45.974Z,-1.50
2023-03-11T23:50:51.542Z,-1.24
2023-03-11T23:55:55.862Z,-1.10
